createdAt,value
2019-04-26T00:02:46.680Z,34.10
2019-04-26T00:05:18.464Z,34.40
2019-04-26T00:07:49.580Z,34.40
2019-04-26T00:10:34.192Z,34.60
2019-04-26T00:13:25.859Z,34.60
2019-04-26T00:15:58.395Z,34.70
2019-04-26T00:18:28.753Z,34.90
2019-04-26T00:20:59.092Z,35.30
2019-04-26T00:23:29.828Z,35.10
2019-04-26T00:26:00.741Z,35.60
2019-04-26T00:28:31.722Z,35.60
2019-04-26T00:31:02.402Z,35.50
2019-04-26T00:33:32.737Z,35.80
2019-04-26T00:36:03.447Z,35.90
2019-04-26T00:38:33.811Z,36.00
2019-04-26T00:41:05.039Z,36.10
2019-04-26T00:43:35.778Z,36.10
2019-04-26T00:46:06.888Z,36.10
2019-04-26T00:48:37.845Z,36.20
2019-04-26T00:51:08.516Z,36.60
2019-04-26T00:53:38.883Z,36.70
2019-04-26T00:56:09.565Z,36.70
2019-04-26T00:58:40.536Z,36.80
2019-04-26T01:01:11.768Z,37.00
2019-04-26T01:03:42.528Z,37.20
2019-04-26T01:06:16.982Z,37.50
2019-04-26T01:08:47.730Z,37.50
2019-04-26T01:11:19.635Z,37.50
2019-04-26T01:13:50.428Z,37.50
2019-04-26T01:16:22.153Z,37.90
2019-04-26T01:18:53.773Z,37.90
2019-04-26T01:21:24.736Z,38.30
2019-04-26T01:23:55.551Z,39.10
2019-04-26T01:26:50.020Z,38.50
2019-04-26T01:29:20.381Z,38.70
2019-04-26T01:31:59.091Z,38.80
2019-04-26T01:34:30.033Z,39.00
2019-04-26T01:37:00.975Z,39.20
2019-04-26T01:39:33.649Z,39.00
2019-04-26T01:42:08.945Z,39.60
2019-04-26T01:44:44.633Z,39.60
2019-04-26T01:47:16.205Z,39.80
2019-04-26T01:49:46.917Z,40.00
2019-04-26T01:52:17.294Z,40.50
2019-04-26T01:54:47.628Z,40.20
2019-04-26T01:57:18.677Z,40.60
2019-04-26T01:59:53.691Z,41.00
2019-04-26T02:02:38.372Z,41.30
2019-04-26T02:05:13.589Z,41.80
2019-04-26T02:07:44.637Z,41.80
2019-04-26T02:10:19.171Z,41.80
2019-04-26T02:12:50.544Z,42.10
2019-04-26T02:15:24.440Z,42.10
2019-04-26T02:17:56.588Z,42.70
2019-04-26T02:20:52.645Z,42.90
2019-04-26T02:23:27.938Z,43.20
2019-04-26T02:26:00.067Z,43.50
2019-04-26T02:28:30.396Z,44.20
2019-04-26T02:31:00.842Z,43.90
2019-04-26T02:33:33.295Z,44.20
2019-04-26T02:36:03.742Z,44.40
2019-04-26T02:38:35.087Z,44.60
2019-04-26T02:41:06.668Z,44.90
2019-04-26T02:43:37.309Z,45.30
2019-04-26T02:46:09.415Z,45.40
2019-04-26T02:48:49.861Z,46.10
2019-04-26T02:51:30.442Z,46.30
2019-04-26T02:54:21.042Z,46.30
2019-04-26T02:56:51.385Z,46.20
2019-04-26T03:00:00.236Z,46.20
2019-04-26T03:02:33.243Z,46.70
2019-04-26T03:05:05.548Z,47.10
2019-04-26T03:07:56.170Z,47.40
2019-04-26T03:10:51.049Z,47.60
2019-04-26T03:13:25.525Z,47.90
2019-04-26T03:16:13.673Z,48.20
2019-04-26T03:18:53.774Z,48.40
2019-04-26T03:21:47.279Z,48.70
2019-04-26T03:24:39.216Z,48.80
2019-04-26T03:27:33.375Z,48.90
2019-04-26T03:30:19.322Z,49.30
2019-04-26T03:33:11.683Z,49.70
2019-04-26T03:36:00.541Z,49.50
2019-04-26T03:38:41.910Z,49.70
2019-04-26T03:41:36.682Z,49.80
2019-04-26T03:44:26.956Z,50.30
2019-04-26T03:47:00.378Z,50.60
2019-04-26T03:49:54.599Z,50.50
2019-04-26T03:52:35.308Z,50.70
2019-04-26T03:55:29.315Z,51.40
2019-04-26T03:58:08.094Z,51.50
2019-04-26T04:00:44.698Z,51.60
2019-04-26T04:03:37.769Z,51.50
2019-04-26T04:06:08.919Z,52.00
2019-04-26T04:08:45.977Z,52.00
2019-04-26T04:11:24.369Z,52.00
2019-04-26T04:14:08.239Z,52.60
2019-04-26T04:16:54.532Z,52.70
2019-04-26T04:19:57.738Z,52.80
2019-04-26T04:22:49.389Z,53.10
2019-04-26T04:25:43.677Z,53.10
2019-04-26T04:28:30.085Z,53.10
2019-04-26T04:31:05.102Z,53.10
2019-04-26T04:34:01.631Z,53.50
2019-04-26T04:36:37.256Z,53.30
2019-04-26T04:39:13.394Z,53.30
2019-04-26T04:42:18.691Z,53.20
2019-04-26T04:45:06.308Z,52.80
2019-04-26T04:48:20.859Z,52.60
2019-04-26T04:51:28.242Z,52.80
2019-04-26T04:54:08.843Z,52.60
2019-04-26T04:56:59.356Z,53.00
2019-04-26T04:59:41.757Z,53.30
2019-04-26T05:02:21.545Z,53.50
2019-04-26T05:05:06.664Z,53.60
2019-04-26T05:08:09.915Z,54.00
2019-04-26T05:11:04.178Z,53.80
2019-04-26T05:13:45.227Z,53.80
2019-04-26T05:17:02.000Z,53.50
2019-04-26T05:20:04.456Z,53.50
2019-04-26T05:22:58.158Z,53.30
2019-04-26T05:26:11.271Z,52.90
2019-04-26T05:29:03.259Z,52.50
2019-04-26T05:32:15.916Z,52.30
2019-04-26T05:34:58.005Z,51.90
2019-04-26T05:38:03.100Z,51.30
2019-04-26T05:41:00.130Z,50.90
2019-04-26T05:43:38.115Z,50.50
2019-04-26T05:46:32.736Z,50.20
2019-04-26T05:49:44.310Z,49.50
2019-04-26T05:52:52.046Z,49.30
2019-04-26T05:55:36.226Z,48.90
2019-04-26T05:58:31.752Z,48.80
2019-04-26T06:01:42.969Z,49.60
2019-04-26T06:04:34.752Z,48.90
2019-04-26T06:07:52.239Z,48.10
2019-04-26T06:10:33.548Z,48.10
2019-04-26T06:13:22.422Z,48.20
2019-04-26T06:16:18.602Z,48.40
2019-04-26T06:19:22.031Z,47.30
2019-04-26T06:22:00.577Z,46.50
2019-04-26T06:24:42.369Z,46.50
2019-04-26T06:27:48.857Z,46.00
2019-04-26T06:30:24.029Z,46.40
2019-04-26T06:33:05.616Z,46.00
2019-04-26T06:35:36.616Z,45.80
2019-04-26T06:38:59.940Z,45.70
2019-04-26T06:42:08.639Z,45.20
2019-04-26T06:45:19.988Z,44.70
2019-04-26T06:48:22.987Z,44.40
2019-04-26T06:51:44.288Z,44.50
2019-04-26T06:54:40.875Z,44.60
2019-04-26T06:58:02.898Z,44.40
2019-04-26T07:01:20.449Z,43.60
2019-04-26T07:04:24.436Z,42.20
2019-04-26T07:07:11.569Z,42.40
2019-04-26T07:10:02.669Z,41.90
2019-04-26T07:13:02.204Z,41.30
2019-04-26T07:15:46.577Z,41.40
2019-04-26T07:18:27.940Z,41.40
2019-04-26T07:21:12.910Z,40.70
2019-04-26T07:24:21.552Z,40.20
2019-04-26T07:27:15.005Z,40.50
2019-04-26T07:30:14.301Z,40.00
2019-04-26T07:33:10.725Z,39.70
2019-04-26T07:36:07.888Z,39.10
2019-04-26T07:39:19.921Z,38.90
2019-04-26T07:42:36.827Z,38.80
2019-04-26T07:45:51.527Z,37.70
2019-04-26T07:48:53.209Z,37.90
2019-04-26T07:51:50.974Z,37.10
2019-04-26T07:54:51.307Z,36.10
2019-04-26T07:57:50.337Z,36.50
2019-04-26T08:00:45.195Z,36.20
2019-04-26T08:03:31.512Z,35.80
2019-04-26T08:06:21.068Z,36.10
2019-04-26T08:09:24.233Z,36.10
2019-04-26T08:11:51.704Z,35.60
2019-04-26T08:14:46.833Z,35.40
2019-04-26T08:17:27.396Z,35.00
2019-04-26T08:20:08.105Z,33.50
2019-04-26T08:22:36.583Z,34.80
2019-04-26T08:25:08.250Z,33.90
2019-04-26T08:27:39.407Z,33.60
2019-04-26T08:30:17.452Z,33.20
2019-04-26T08:32:54.512Z,32.60
2019-04-26T08:35:27.701Z,32.40
2019-04-26T08:38:01.819Z,32.80
2019-04-26T08:40:33.394Z,32.50
2019-04-26T08:43:22.682Z,31.90
2019-04-26T08:46:13.224Z,32.00
2019-04-26T08:48:48.867Z,31.70
2019-04-26T08:51:22.052Z,31.60
2019-04-26T08:53:54.209Z,31.30
2019-04-26T08:56:38.598Z,31.50
2019-04-26T08:59:17.029Z,30.80
2019-04-26T09:01:58.332Z,30.50
2019-04-26T09:04:33.447Z,30.30
2019-04-26T09:07:09.411Z,29.60
2019-04-26T09:09:40.428Z,29.70
2019-04-26T09:12:22.882Z,30.40
2019-04-26T09:14:50.925Z,30.50
2019-04-26T09:17:21.390Z,30.40
2019-04-26T09:19:52.096Z,30.00
2019-04-26T09:22:33.343Z,30.50
2019-04-26T09:25:05.830Z,30.80
2019-04-26T09:27:38.198Z,30.30
2019-04-26T09:30:11.054Z,30.40
2019-04-26T09:32:52.145Z,31.20
2019-04-26T09:35:22.964Z,30.50
2019-04-26T09:37:53.785Z,30.30
2019-04-26T09:40:24.162Z,30.10
2019-04-26T09:42:56.884Z,29.80
2019-04-26T09:45:29.242Z,29.70
2019-04-26T09:48:17.977Z,30.60
2019-04-26T09:50:50.513Z,30.00
2019-04-26T09:53:21.797Z,29.90
2019-04-26T09:55:52.284Z,29.70
2019-04-26T09:58:22.922Z,29.80
2019-04-26T10:00:53.366Z,30.00
2019-04-26T10:03:24.666Z,29.80
2019-04-26T10:05:55.806Z,29.80
2019-04-26T10:08:27.602Z,30.60
2019-04-26T10:10:58.380Z,30.50
2019-04-26T10:13:30.448Z,30.60
2019-04-26T10:16:05.344Z,30.70
2019-04-26T10:18:36.184Z,29.70
2019-04-26T10:21:06.564Z,29.70
2019-04-26T10:23:37.317Z,29.20
2019-04-26T10:26:08.158Z,28.70
2019-04-26T10:28:38.889Z,28.20
2019-04-26T10:31:09.272Z,28.30
2019-04-26T10:33:39.985Z,28.60
2019-04-26T10:36:10.706Z,27.90
2019-04-26T10:38:41.111Z,27.10
2019-04-26T10:41:11.862Z,27.20
2019-04-26T10:44:09.892Z,27.30
2019-04-26T10:46:40.507Z,27.40
2019-04-26T10:49:41.043Z,27.10
2019-04-26T10:52:21.049Z,27.70
2019-04-26T10:54:56.446Z,28.20
2019-04-26T10:57:28.695Z,28.20
2019-04-26T11:00:01.410Z,27.50
2019-04-26T11:02:32.260Z,27.60
2019-04-26T11:05:02.945Z,27.80
2019-04-26T11:07:33.309Z,27.70
2019-04-26T11:10:05.904Z,27.40
2019-04-26T11:12:39.623Z,27.20
2019-04-26T11:15:08.486Z,27.70
2019-04-26T11:17:39.243Z,27.30
2019-04-26T11:20:11.912Z,27.20
2019-04-26T11:22:42.280Z,26.60
2019-04-26T11:25:13.191Z,27.00
2019-04-26T11:27:46.645Z,26.90
2019-04-26T11:30:20.777Z,26.90
2019-04-26T11:32:48.378Z,27.10
2019-04-26T11:35:38.158Z,27.10
2019-04-26T11:38:08.529Z,26.70
2019-04-26T11:40:38.883Z,27.40
2019-04-26T11:43:09.621Z,27.50
2019-04-26T11:45:40.369Z,25.70
2019-04-26T11:48:11.075Z,25.50
2019-04-26T11:50:42.139Z,26.00
2019-04-26T11:53:12.532Z,25.60
2019-04-26T11:55:43.340Z,26.20
2019-04-26T11:58:17.960Z,25.90
2019-04-26T12:00:50.822Z,26.50
2019-04-26T12:03:24.778Z,26.70
2019-04-26T12:05:55.240Z,26.00
2019-04-26T12:08:27.273Z,25.60
2019-04-26T12:10:58.071Z,24.60
2019-04-26T12:13:28.427Z,24.80
2019-04-26T12:15:59.231Z,23.50
2019-04-26T12:18:29.841Z,24.60
2019-04-26T12:21:01.054Z,23.50
2019-04-26T12:23:32.837Z,23.50
2019-04-26T12:26:03.538Z,23.30
2019-04-26T12:28:36.378Z,23.40
2019-04-26T12:31:06.347Z,22.50
2019-04-26T12:33:39.076Z,23.40
2019-04-26T12:36:12.850Z,23.60
2019-04-26T12:38:41.738Z,23.60
2019-04-26T12:41:12.489Z,23.70
2019-04-26T12:43:43.094Z,23.50
2019-04-26T12:46:22.780Z,24.00
2019-04-26T12:48:53.873Z,23.50
2019-04-26T12:51:24.211Z,24.00
2019-04-26T12:53:54.587Z,24.10
2019-04-26T12:56:26.627Z,24.30
2019-04-26T12:58:57.643Z,24.10
2019-04-26T13:01:28.058Z,24.20
2019-04-26T13:04:05.381Z,24.00
2019-04-26T13:06:38.471Z,24.60
2019-04-26T13:09:21.707Z,24.90
2019-04-26T13:12:01.080Z,25.80
2019-04-26T13:14:45.414Z,24.50
2019-04-26T13:17:26.888Z,24.50
2019-04-26T13:19:58.038Z,24.80
2019-04-26T13:22:28.646Z,24.80
2019-04-26T13:24:59.439Z,24.80
2019-04-26T13:27:29.769Z,25.90
2019-04-26T13:30:02.375Z,25.00
2019-04-26T13:32:32.870Z,25.30
2019-04-26T13:35:07.009Z,25.50
2019-04-26T13:37:35.959Z,25.90
2019-04-26T13:40:08.527Z,25.70
2019-04-26T13:42:38.870Z,25.80
2019-04-26T13:45:11.249Z,26.10
2019-04-26T13:47:43.491Z,25.70
2019-04-26T13:50:26.660Z,25.20
2019-04-26T13:52:56.661Z,25.20
2019-04-26T13:55:29.496Z,24.20
2019-04-26T13:57:59.677Z,24.10
2019-04-26T14:00:32.305Z,24.40
2019-04-26T14:03:03.010Z,23.00
2019-04-26T14:05:33.718Z,23.10
2019-04-26T14:08:04.556Z,24.00
2019-04-26T14:10:35.399Z,24.40
2019-04-26T14:13:06.006Z,24.20
2019-04-26T14:15:39.466Z,24.10
2019-04-26T14:18:09.162Z,24.00
2019-04-26T14:20:39.523Z,23.90
2019-04-26T14:23:28.157Z,23.10
2019-04-26T14:26:01.156Z,23.00
2019-04-26T14:28:32.869Z,23.00
2019-04-26T14:31:03.620Z,23.60
2019-04-26T14:33:34.245Z,22.90
2019-04-26T14:36:17.109Z,22.50
2019-04-26T14:38:40.210Z,22.90
2019-04-26T14:41:12.901Z,22.80
2019-04-26T14:43:41.634Z,22.80
2019-04-26T14:46:14.673Z,22.70
2019-04-26T14:48:54.874Z,22.70
2019-04-26T14:51:18.604Z,23.40
2019-04-26T14:53:49.197Z,23.50
2019-04-26T14:56:19.550Z,23.60
2019-04-26T14:58:50.285Z,23.70
2019-04-26T15:01:38.798Z,24.10
2019-04-26T15:04:28.294Z,24.00
2019-04-26T15:06:59.884Z,24.00
2019-04-26T15:09:35.840Z,24.30
2019-04-26T15:12:03.653Z,24.30
2019-04-26T15:14:34.101Z,24.70
2019-04-26T15:17:04.774Z,24.60
2019-04-26T15:19:35.331Z,24.80
2019-04-26T15:22:10.323Z,25.00
2019-04-26T15:24:38.715Z,25.10
2019-04-26T15:27:09.563Z,25.50
2019-04-26T15:29:41.991Z,25.90
2019-04-26T15:32:13.190Z,25.90
2019-04-26T15:34:43.828Z,26.30
2019-04-26T15:37:16.197Z,26.60
2019-04-26T15:40:00.315Z,26.60
2019-04-26T15:42:32.673Z,26.50
2019-04-26T15:45:05.691Z,26.00
2019-04-26T15:47:37.702Z,25.60
2019-04-26T15:50:10.876Z,26.00
2019-04-26T15:52:43.749Z,25.50
2019-04-26T15:55:14.338Z,25.20
2019-04-26T15:57:45.500Z,25.30
2019-04-26T16:00:16.207Z,25.70
2019-04-26T16:02:46.543Z,25.30
2019-04-26T16:05:17.513Z,25.30
2019-04-26T16:07:47.868Z,25.40
2019-04-26T16:10:18.558Z,25.50
2019-04-26T16:12:48.922Z,25.60
2019-04-26T16:15:19.658Z,25.70
2019-04-26T16:17:50.660Z,25.40
2019-04-26T16:20:22.139Z,25.30
2019-04-26T16:22:53.424Z,25.30
2019-04-26T16:25:24.111Z,25.90
2019-04-26T16:28:12.620Z,25.90
2019-04-26T16:30:45.131Z,25.80
2019-04-26T16:33:33.611Z,25.90
2019-04-26T16:36:05.291Z,25.90
2019-04-26T16:38:35.791Z,25.90
2019-04-26T16:41:07.283Z,26.10
2019-04-26T16:43:44.809Z,26.40
2019-04-26T16:46:12.606Z,26.70
2019-04-26T16:48:44.478Z,27.10
2019-04-26T16:51:14.629Z,27.40
2019-04-26T16:54:02.930Z,28.10
2019-04-26T16:56:17.390Z,28.70
2019-04-26T16:58:48.363Z,28.80
2019-04-26T17:01:18.778Z,28.70
2019-04-26T17:03:49.498Z,28.60
2019-04-26T17:06:20.260Z,29.20
2019-04-26T17:09:00.211Z,29.10
2019-04-26T17:11:23.204Z,29.50
2019-04-26T17:13:56.767Z,29.60
2019-04-26T17:16:29.654Z,29.40
2019-04-26T17:18:59.533Z,29.40
2019-04-26T17:21:34.604Z,29.60
2019-04-26T17:24:09.583Z,29.80
2019-04-26T17:26:40.730Z,29.90
2019-04-26T17:29:11.240Z,30.00
2019-04-26T17:31:43.060Z,30.20
2019-04-26T17:34:13.823Z,30.40
2019-04-26T17:36:52.188Z,30.70
2019-04-26T17:39:23.363Z,31.20
2019-04-26T17:41:54.452Z,31.60
2019-04-26T17:44:26.815Z,31.70
2019-04-26T17:47:00.174Z,32.40
2019-04-26T17:49:34.389Z,31.90
2019-04-26T17:52:02.435Z,32.10
2019-04-26T17:54:46.147Z,32.60
2019-04-26T17:57:08.747Z,33.00
2019-04-26T17:59:37.154Z,33.40
2019-04-26T18:02:25.565Z,33.30
2019-04-26T18:04:42.992Z,34.10
2019-04-26T18:07:37.684Z,34.40
2019-04-26T18:09:46.825Z,34.80
2019-04-26T18:12:17.460Z,35.00
2019-04-26T18:14:48.117Z,35.70
2019-04-26T18:17:20.425Z,35.60
2019-04-26T18:20:12.890Z,35.50
2019-04-26T18:22:45.212Z,35.40
2019-04-26T18:25:15.553Z,35.40
2019-04-26T18:27:45.908Z,36.10
2019-04-26T18:30:16.292Z,36.00
2019-04-26T18:32:47.664Z,36.20
2019-04-26T18:35:18.777Z,36.40
2019-04-26T18:37:49.479Z,36.50
2019-04-26T18:40:20.706Z,36.90
2019-04-26T18:42:54.726Z,37.00
2019-04-26T18:45:28.876Z,37.50
2019-04-26T18:48:01.135Z,37.70
2019-04-26T18:50:32.774Z,37.90
2019-04-26T18:53:14.912Z,38.00
2019-04-26T18:55:47.394Z,38.40
2019-04-26T18:58:18.202Z,38.50
2019-04-26T19:00:48.586Z,38.10
2019-04-26T19:03:19.242Z,38.80
2019-04-26T19:05:49.969Z,39.20
2019-04-26T19:08:26.960Z,39.30
2019-04-26T19:11:00.781Z,39.10
2019-04-26T19:13:43.470Z,39.50
2019-04-26T19:16:24.850Z,39.90
2019-04-26T19:18:59.998Z,40.00
2019-04-26T19:21:38.952Z,40.10
2019-04-26T19:24:11.610Z,40.20
2019-04-26T19:26:38.820Z,40.40
2019-04-26T19:29:16.313Z,40.60
2019-04-26T19:31:42.884Z,40.70
2019-04-26T19:34:33.146Z,40.60
2019-04-26T19:37:04.365Z,40.80
2019-04-26T19:39:35.848Z,40.50
2019-04-26T19:42:06.589Z,40.50
2019-04-26T19:44:37.223Z,40.70
2019-04-26T19:47:09.201Z,41.20
2019-04-26T19:49:47.215Z,40.80
2019-04-26T19:52:28.266Z,41.20
2019-04-26T19:55:15.580Z,41.10
2019-04-26T19:58:01.473Z,41.40
2019-04-26T20:00:52.465Z,41.60
2019-04-26T20:03:22.774Z,41.70
2019-04-26T20:05:53.124Z,42.00
2019-04-26T20:08:23.620Z,42.00
2019-04-26T20:10:53.961Z,42.10
2019-04-26T20:13:24.324Z,42.00
2019-04-26T20:15:57.324Z,42.00
2019-04-26T20:18:26.804Z,42.10
2019-04-26T20:20:57.273Z,42.00
2019-04-26T20:23:27.658Z,41.90
2019-04-26T20:26:06.103Z,42.20
2019-04-26T20:28:34.280Z,42.20
2019-04-26T20:31:12.273Z,42.30
2019-04-26T20:34:05.653Z,42.80
2019-04-26T20:36:40.662Z,42.60
2019-04-26T20:39:07.435Z,42.60
2019-04-26T20:41:38.042Z,42.60
2019-04-26T20:44:10.124Z,42.60
2019-04-26T20:46:42.496Z,42.60
2019-04-26T20:49:12.895Z,42.50
2019-04-26T20:51:46.270Z,42.50
2019-04-26T20:54:17.457Z,42.70
2019-04-26T20:56:52.640Z,42.90
2019-04-26T20:59:21.987Z,43.10
2019-04-26T21:02:03.349Z,43.40
2019-04-26T21:04:36.671Z,43.60
2019-04-26T21:06:56.768Z,43.60
2019-04-26T21:09:27.340Z,44.10
2019-04-26T21:11:58.438Z,44.30
2019-04-26T21:14:29.128Z,44.40
2019-04-26T21:16:59.519Z,44.40
2019-04-26T21:19:32.715Z,44.70
2019-04-26T21:22:02.645Z,44.90
2019-04-26T21:24:36.849Z,44.70
2019-04-26T21:27:09.278Z,45.00
2019-04-26T21:29:59.174Z,44.90
2019-04-26T21:32:51.426Z,44.70
2019-04-26T21:35:25.029Z,45.00
2019-04-26T21:38:16.000Z,45.30
2019-04-26T21:41:11.305Z,45.40
2019-04-26T21:43:39.319Z,45.30
2019-04-26T21:46:14.312Z,45.50
2019-04-26T21:48:45.469Z,45.70
2019-04-26T21:51:16.364Z,45.60
2019-04-26T21:53:46.992Z,45.90
2019-04-26T21:56:17.368Z,46.40
2019-04-26T21:58:48.421Z,47.20
2019-04-26T22:01:23.467Z,48.60
2019-04-26T22:03:58.129Z,49.30
2019-04-26T22:06:28.703Z,50.80
2019-04-26T22:09:04.954Z,51.00
2019-04-26T22:11:35.445Z,52.60
2019-04-26T22:14:21.420Z,55.30
2019-04-26T22:20:55.201Z,64.60
2019-04-26T22:23:36.492Z,71.40
2019-04-26T22:26:55.865Z,76.40
2019-04-26T22:29:26.552Z,83.40
2019-04-26T22:31:57.744Z,91.10
2019-04-26T22:34:28.450Z,93.00
2019-04-26T22:37:29.079Z,94.60
2019-04-26T22:39:50.685Z,96.30
2019-04-26T22:42:21.448Z,97.30
2019-04-26T22:45:13.406Z,97.40
2019-04-26T22:48:05.698Z,98.30
2019-04-26T22:50:36.766Z,97.90
2019-04-26T22:53:08.001Z,98.70
2019-04-26T22:55:38.344Z,98.80
2019-04-26T22:58:09.312Z,98.70
2019-04-26T23:00:40.440Z,98.70
2019-04-26T23:03:11.116Z,98.70
2019-04-26T23:05:43.255Z,98.70
2019-04-26T23:08:14.350Z,98.30
2019-04-26T23:10:49.115Z,98.40
2019-04-26T23:13:21.161Z,98.60
2019-04-26T23:16:11.383Z,98.30
2019-04-26T23:18:49.755Z,98.50
2019-04-26T23:21:28.194Z,98.40
2019-04-26T23:23:59.443Z,98.70
2019-04-26T23:26:30.201Z,98.70
2019-04-26T23:29:01.123Z,98.80
2019-04-26T23:31:33.442Z,98.40
2019-04-26T23:34:04.319Z,98.70
2019-04-26T23:36:34.914Z,98.60
2019-04-26T23:39:07.675Z,98.50
2019-04-26T23:41:41.638Z,98.30
2019-04-26T23:44:10.851Z,97.90
2019-04-26T23:46:43.161Z,98.20
2019-04-26T23:49:14.507Z,98.20
2019-04-26T23:51:45.979Z,98.60
2019-04-26T23:54:16.464Z,98.60
2019-04-26T23:56:46.864Z,98.60
2019-04-26T23:59:20.831Z,98.20
